• Join FlightAware (Why Join?)
  • Login
  • US Flag 
09:33PM EDT


 

Airport Tracker/Info


-or-


 

Live Flight TrackerFlight Track Log ✈ CCA4486 ✈ 17-Apr-2014 ✈ ZUJZ / JZH - ZUUU / CTU

Flight Track Log - Related Links

Times and Time Zones

All times are in EDT time to prevent confusion due to time zone crossing. See the CCA4486 flight status page for this flight to view local times or setup timezone preferences in your user account.

Time Position Orientation Groundspeed Altitude Reporting Facility
EDT Latitude Longitude Course Direction KTS MPH feet Rate Location/Type
09:49AM 32.6239 103.7106 174° South  Level Estimated
09:50AM 32.5656 103.7175 174° South  Level Estimated
09:51AM 32.5073 103.7244 174° South  Level Estimated
09:52AM 32.4490 103.7313 174° South  Level Estimated
09:53AM 32.3907 103.7381 174° South  Level Estimated
09:54AM 32.3324 103.7450 174° South  Level Estimated
09:55AM 32.2742 103.7518 174° South  Level Estimated
09:56AM 32.2159 103.7586 174° South  Level Estimated
09:57AM 32.1576 103.7655 174° South  Level Estimated
09:58AM 32.0993 103.7723 174° South  Level Estimated
09:59AM 32.0410 103.7791 174° South  Level Estimated
10:00AM 31.9827 103.7859 174° South  Level Estimated
10:01AM 31.9244 103.7927 174° South  Level Estimated
10:02AM 31.8661 103.7995 174° South  Level Estimated
10:03AM 31.8079 103.8062 174° South  Level Estimated
10:04AM 31.7496 103.8130 174° South  Level Estimated
10:05AM 31.6913 103.8197 174° South  Level Estimated
10:06AM 31.6330 103.8265 174° South  Level Estimated
10:07AM 31.5747 103.8332 174° South  Level Estimated
10:08AM 31.5164 103.8400 174° South  Level Estimated
10:09AM 31.4581 103.8467 174° South  Level Estimated
10:10AM 31.3998 103.8534 174° South  Level Estimated
10:11AM 31.3415 103.8601 174° South  Level Estimated
10:12AM 31.2832 103.8668 174° South  Level Estimated
10:13AM 31.2250 103.8735 174° South  Level Estimated
10:14AM 31.1667 103.8801 174° South  Level Estimated
10:15AM 31.1084 103.8868 174° South  Level Estimated
10:16AM 31.0501 103.8935 174° South  Level Estimated
10:17AM 30.9918 103.9001 174° South  Level Estimated
10:18AM 30.9335 103.9068 174° South  Level Estimated
10:19AM 30.8752 103.9134 174° South  Level Estimated
10:20AM 30.8169 103.9201 174° South  Level Estimated
10:21AM 30.7586 103.9267 174° South  Level Estimated
10:22AM 30.7003 103.9333 174° South  Level Estimated
10:23AM 30.6420 103.9399 174° South  Level Estimated
10:24AM 30.5837 103.9465 174° South  Level Estimated
10:25AM 30.5785 103.9471 174° South  Level Estimated
10:26AM 30.5785 103.9471 North  Level Estimated
10:27AM 30.5785 103.9471 North  Level Estimated
10:28AM 30.5785 103.9471 North  Level Estimated
10:29AM 30.5785 103.9471 North  Level Estimated
10:30AM 30.5785 103.9471 North  Level Estimated
10:31AM 30.5785 103.9471 North  Level Estimated
10:32AM 30.5785 103.9471 North  Level Estimated
10:33AM 30.5785 103.9471 North  Level Estimated
10:34AM 30.5785 103.9471 North  Level Estimated
10:35AM 30.5785 103.9471 North  Level Estimated
10:36AM 30.5785 103.9471 North  Level Estimated